Time;durP1;ratioP1;P1;durP2;ratioP2;P2;SDS_P1;SDS_P2;PMS_P1;PMS_P2;Temp;Humidity;BMP_temperature;BMP_pressure;BME280_temperature;BME280_humidity;BME280_pressure;Samples;Min_cycle;Max_cycle;Signal;HPM_P1;HPM_P2
2023/05/13 00:01:46;;;;;;;10.00;6.43;;;13.80;99.90;;;;;;5138050;27;20119;-64
2023/05/13 00:04:13;;;;;;;7.32;5.70;;;13.80;99.90;;;;;;5102712;27;20058;-64
2023/05/13 00:06:40;;;;;;;9.57;5.85;;;13.80;99.90;;;;;;5129173;27;20043;-64
2023/05/13 00:09:06;;;;;;;7.47;6.15;;;13.70;99.90;;;;;;5117332;28;20083;-64
2023/05/13 00:11:33;;;;;;;7.95;6.95;;;13.70;99.90;;;;;;5117121;28;20043;-65
2023/05/13 00:13:59;;;;;;;8.88;6.53;;;13.60;99.90;;;;;;5117348;28;20047;-63
2023/05/13 00:16:27;;;;;;;8.45;7.05;;;13.60;99.90;;;;;;5117163;28;20105;-63
2023/05/13 00:18:54;;;;;;;11.07;7.90;;;13.50;99.90;;;;;;5099254;28;20341;-65
2023/05/13 00:21:21;;;;;;;7.50;6.70;;;13.50;99.90;;;;;;5117174;28;20051;-65
2023/05/13 00:23:47;;;;;;;9.43;6.93;;;13.40;99.90;;;;;;5082697;28;20044;-64
2023/05/13 00:26:15;;;;;;;8.13;6.55;;;13.40;99.90;;;;;;5116745;28;20067;-65
2023/05/13 00:28:41;;;;;;;8.93;7.80;;;13.30;99.90;;;;;;5116524;28;20104;-64
2023/05/13 00:31:08;;;;;;;7.65;6.88;;;13.30;99.90;;;;;;5116866;28;20062;-64
2023/05/13 00:33:35;;;;;;;8.52;7.18;;;13.20;99.90;;;;;;5116964;28;20109;-64
2023/05/13 00:36:01;;;;;;;7.78;6.93;;;13.30;99.90;;;;;;5114732;27;20452;-63
2023/05/13 00:38:27;;;;;;;12.75;7.75;;;13.20;99.90;;;;;;5116839;28;20055;-65
2023/05/13 00:40:53;;;;;;;10.85;7.18;;;13.10;99.90;;;;;;5116378;28;20464;-65
2023/05/13 00:43:20;;;;;;;8.80;7.90;;;13.10;99.90;;;;;;5098579;28;20055;-64
2023/05/13 00:45:46;;;;;;;8.50;7.57;;;13.10;99.90;;;;;;5115934;27;20048;-65
2023/05/13 00:48:12;;;;;;;8.52;7.63;;;13.10;99.90;;;;;;5116517;28;20052;-64
2023/05/13 00:50:41;;;;;;;10.13;7.22;;;13.00;99.90;;;;;;5115937;28;20036;-65
2023/05/13 00:53:07;;;;;;;8.80;7.85;;;13.00;99.90;;;;;;5115374;28;20044;-64
2023/05/13 00:55:33;;;;;;;8.95;7.57;;;13.00;99.90;;;;;;5116052;28;20051;-62
2023/05/13 00:57:59;;;;;;;12.02;8.38;;;12.90;99.90;;;;;;5115950;27;20090;-63
2023/05/13 01:00:28;;;;;;;9.48;7.95;;;12.90;99.90;;;;;;5098091;28;20139;-65
2023/05/13 01:03:09;;;;;;;9.07;8.02;;;12.90;99.90;;;;;;5128335;27;20062;-65
2023/05/13 01:05:58;;;;;;;10.77;7.80;;;12.80;99.90;;;;;;5136069;27;20458;-66
2023/05/13 01:08:45;;;;;;;9.93;8.02;;;12.80;99.90;;;;;;5082577;28;20468;-65
2023/05/13 01:11:28;;;;;;;11.60;8.32;;;12.80;99.90;;;;;;5095504;28;20464;-66
2023/05/13 01:14:07;;;;;;;10.35;9.35;;;12.70;99.90;;;;;;5077605;28;20040;-64
2023/05/13 01:16:49;;;;;;;10.35;8.38;;;12.70;99.90;;;;;;5102437;28;20077;-65
2023/05/13 01:19:31;;;;;;;10.05;8.05;;;12.70;99.90;;;;;;5097305;28;20105;-63
2023/05/13 01:21:58;;;;;;;8.80;7.72;;;12.70;99.90;;;;;;5115624;28;20089;-62
2023/05/13 01:24:24;;;;;;;10.48;9.27;;;12.70;99.90;;;;;;5097091;28;20051;-66
2023/05/13 01:26:50;;;;;;;10.07;8.23;;;12.60;99.90;;;;;;5096713;28;20039;-64
2023/05/13 01:29:17;;;;;;;10.35;9.35;;;12.60;99.90;;;;;;5097291;28;20052;-62
2023/05/13 01:31:45;;;;;;;12.40;8.70;;;12.60;99.90;;;;;;5097254;28;20048;-66
2023/05/13 01:34:14;;;;;;;9.05;8.15;;;12.60;99.90;;;;;;5080668;28;20052;-62
2023/05/13 01:36:41;;;;;;;10.65;7.95;;;12.60;99.90;;;;;;5096883;28;20044;-62
2023/05/13 01:39:09;;;;;;;11.60;8.52;;;12.50;99.90;;;;;;5097245;28;20549;-63
2023/05/13 01:41:36;;;;;;;10.68;9.52;;;12.50;99.90;;;;;;5097151;28;20414;-62
2023/05/13 01:44:02;;;;;;;10.95;8.25;;;12.50;99.90;;;;;;5097095;28;20476;-64
2023/05/13 01:46:29;;;;;;;9.90;8.70;;;12.50;99.90;;;;;;5096203;28;20394;-63
2023/05/13 01:48:55;;;;;;;9.77;8.38;;;12.40;99.90;;;;;;5115570;27;20051;-64
2023/05/13 01:51:21;;;;;;;9.85;7.90;;;12.40;99.90;;;;;;5117285;27;20043;-63
2023/05/13 01:53:47;;;;;;;11.32;8.13;;;12.40;99.90;;;;;;5116969;27;20104;-63
2023/05/13 01:56:14;;;;;;;9.48;8.18;;;12.40;99.90;;;;;;5116667;27;20047;-64
2023/05/13 01:58:40;;;;;;;10.45;7.78;;;12.30;99.90;;;;;;5116820;27;20439;-63
2023/05/13 02:01:06;;;;;;;9.40;8.40;;;12.30;99.90;;;;;;5117332;27;20055;-63
2023/05/13 02:03:34;;;;;;;10.25;9.35;;;12.30;99.90;;;;;;5099426;28;20376;-63
2023/05/13 02:06:00;;;;;;;11.73;9.23;;;12.20;99.90;;;;;;5114829;27;20429;-64
2023/05/13 02:08:26;;;;;;;10.00;7.57;;;12.20;99.90;;;;;;5096556;28;20048;-63
2023/05/13 02:10:57;;;;;;;10.02;8.68;;;12.20;99.90;;;;;;5096304;28;20464;-65
2023/05/13 02:13:24;;;;;;;11.40;9.05;;;12.10;99.90;;;;;;5096174;28;20055;-64
2023/05/13 02:15:53;;;;;;;11.05;8.40;;;12.10;99.90;;;;;;5095986;27;20054;-64
2023/05/13 02:18:21;;;;;;;9.73;8.73;;;12.00;99.90;;;;;;5094053;28;20204;-63
2023/05/13 02:20:47;;;;;;;11.27;9.73;;;12.00;99.90;;;;;;5092385;28;20109;-64
2023/05/13 02:23:14;;;;;;;11.35;10.05;;;12.00;99.90;;;;;;5093652;28;20058;-63
2023/05/13 02:25:41;;;;;;;12.10;9.77;;;11.90;99.90;;;;;;5092292;28;20044;-63
2023/05/13 02:28:07;;;;;;;12.27;10.23;;;11.90;99.90;;;;;;5112109;28;20378;-63
2023/05/13 02:30:33;;;;;;;12.10;8.45;;;11.80;99.90;;;;;;5112909;28;20051;-63
2023/05/13 02:33:00;;;;;;;11.00;9.85;;;11.80;99.90;;;;;;5113109;28;20421;-65
2023/05/13 02:35:29;;;;;;;9.88;8.60;;;11.80;99.90;;;;;;5112268;28;20092;-63
2023/05/13 02:37:56;;;;;;;11.10;9.25;;;11.80;99.90;;;;;;5112119;28;20039;-64
2023/05/13 02:40:22;;;;;;;9.88;8.65;;;11.80;99.90;;;;;;5112736;28;20097;-63
2023/05/13 02:42:49;;;;;;;10.70;9.60;;;11.80;99.90;;;;;;5112737;28;20077;-65
2023/05/13 02:45:15;;;;;;;12.88;8.95;;;11.70;99.90;;;;;;5112499;28;20043;-63
2023/05/13 02:47:42;;;;;;;10.65;9.40;;;11.70;99.90;;;;;;5111734;28;20124;-63
2023/05/13 02:50:09;;;;;;;10.77;9.65;;;11.70;99.90;;;;;;5112451;28;20051;-63
2023/05/13 02:52:37;;;;;;;11.63;9.02;;;11.70;99.90;;;;;;5112421;28;20044;-63
2023/05/13 02:55:06;;;;;;;10.32;9.30;;;11.70;99.90;;;;;;5113500;28;20478;-64
2023/05/13 02:57:32;;;;;;;12.20;8.95;;;11.70;99.90;;;;;;5112185;28;20063;-65
2023/05/13 02:59:59;;;;;;;10.05;9.05;;;11.60;99.90;;;;;;5112495;28;20093;-64
2023/05/13 03:02:26;;;;;;;10.18;8.57;;;11.60;99.90;;;;;;5112115;28;20043;-64
2023/05/13 03:04:54;;;;;;;10.23;9.20;;;11.60;99.90;;;;;;5112323;28;20360;-63
2023/05/13 03:07:20;;;;;;;11.43;9.10;;;11.60;99.90;;;;;;5095346;28;20413;-63
2023/05/13 03:09:46;;;;;;;11.75;9.18;;;11.60;99.90;;;;;;5095893;28;20440;-63
2023/05/13 03:12:13;;;;;;;11.13;9.95;;;11.50;99.90;;;;;;5112260;28;20066;-64
2023/05/13 03:14:39;;;;;;;12.30;10.30;;;11.60;99.90;;;;;;5111660;28;20048;-63
2023/05/13 03:17:05;;;;;;;13.07;9.65;;;11.50;99.90;;;;;;5111957;28;20047;-64
2023/05/13 03:19:33;;;;;;;12.38;9.80;;;11.50;99.90;;;;;;5112096;28;20048;-63
2023/05/13 03:22:00;;;;;;;11.30;9.98;;;11.50;99.90;;;;;;5112306;28;20082;-64
2023/05/13 03:24:26;;;;;;;10.35;9.30;;;11.40;99.90;;;;;;5112244;28;20047;-65
2023/05/13 03:26:52;;;;;;;13.23;10.18;;;11.40;99.90;;;;;;5111664;28;20097;-63
2023/05/13 03:29:19;;;;;;;11.27;9.70;;;11.40;99.90;;;;;;5111922;28;20059;-64
2023/05/13 03:31:45;;;;;;;12.77;11.02;;;11.40;99.90;;;;;;5112091;28;20043;-66
2023/05/13 03:34:11;;;;;;;11.20;10.05;;;11.40;99.90;;;;;;5113071;28;20051;-65
2023/05/13 03:36:37;;;;;;;13.95;11.27;;;11.40;99.90;;;;;;5111379;28;20092;-65
2023/05/13 03:39:03;;;;;;;12.55;10.00;;;11.30;99.90;;;;;;5111959;28;20051;-63
2023/05/13 03:41:30;;;;;;;12.18;10.32;;;11.30;99.90;;;;;;5112012;28;20051;-65
2023/05/13 03:43:56;;;;;;;12.15;10.88;;;11.30;99.90;;;;;;5111609;28;20370;-65
2023/05/13 03:46:22;;;;;;;15.07;12.20;;;11.20;99.90;;;;;;5111215;28;20067;-65
2023/05/13 03:48:49;;;;;;;13.60;12.30;;;11.20;99.90;;;;;;5111874;28;20383;-65
2023/05/13 03:51:15;;;;;;;18.10;12.93;;;11.20;99.90;;;;;;5111755;28;20375;-64
2023/05/13 03:53:41;;;;;;;15.80;11.10;;;11.10;99.90;;;;;;5112109;28;20445;-65
2023/05/13 03:56:08;;;;;;;15.07;12.52;;;11.20;99.90;;;;;;5111174;28;20051;-64
2023/05/13 03:58:34;;;;;;;12.98;11.50;;;11.20;99.90;;;;;;5111871;28;20047;-63
2023/05/13 04:01:00;;;;;;;14.45;12.85;;;11.20;99.90;;;;;;5111428;28;20056;-65
2023/05/13 04:03:27;;;;;;;16.10;12.63;;;11.20;99.90;;;;;;5111912;28;20109;-64
2023/05/13 04:05:53;;;;;;;13.85;12.00;;;11.20;99.90;;;;;;5111082;28;20055;-66
2023/05/13 04:08:19;;;;;;;13.77;11.70;;;11.20;99.90;;;;;;5111418;28;20650;-63
2023/05/13 04:10:46;;;;;;;14.27;11.63;;;11.10;99.90;;;;;;5094689;28;20059;-65
2023/05/13 04:13:12;;;;;;;14.95;11.77;;;11.10;99.90;;;;;;5094893;28;20101;-65
2023/05/13 04:15:38;;;;;;;15.20;12.85;;;11.10;99.90;;;;;;5111297;28;20432;-65
2023/05/13 04:18:05;;;;;;;14.73;13.00;;;11.10;99.90;;;;;;5111723;28;20534;-64
2023/05/13 04:20:31;;;;;;;15.40;12.80;;;11.10;99.90;;;;;;5094480;28;20051;-63
2023/05/13 04:22:58;;;;;;;14.18;12.77;;;11.10;99.90;;;;;;5111617;28;20464;-65
2023/05/13 04:25:24;;;;;;;14.80;11.65;;;11.20;99.90;;;;;;5111247;28;20478;-65
2023/05/13 04:27:50;;;;;;;15.93;13.90;;;11.10;99.90;;;;;;5113121;28;20376;-63
2023/05/13 04:30:17;;;;;;;14.75;11.85;;;11.20;99.90;;;;;;5115342;28;20536;-64
2023/05/13 04:32:43;;;;;;;16.33;14.57;;;11.20;99.90;;;;;;5081230;28;20093;-64
2023/05/13 04:35:09;;;;;;;15.05;12.73;;;11.20;99.90;;;;;;5097877;28;20040;-64
2023/05/13 04:37:35;;;;;;;15.35;11.55;;;11.20;99.90;;;;;;5097703;28;20375;-64
2023/05/13 04:40:02;;;;;;;15.25;13.15;;;11.30;99.90;;;;;;5098409;28;20058;-63
2023/05/13 04:42:28;;;;;;;15.07;13.57;;;11.30;99.90;;;;;;5098281;28;20398;-64
2023/05/13 04:44:54;;;;;;;13.93;12.38;;;11.30;99.90;;;;;;5097755;28;20467;-63
2023/05/13 04:47:21;;;;;;;14.18;12.57;;;11.40;99.90;;;;;;5097168;28;20142;-64
2023/05/13 04:49:48;;;;;;;17.48;12.65;;;11.40;99.90;;;;;;5097726;28;20096;-64
2023/05/13 04:52:14;;;;;;;15.60;13.27;;;11.60;99.90;;;;;;5097607;28;20090;-63
2023/05/13 04:54:41;;;;;;;14.20;12.32;;;11.90;99.90;;;;;;5097903;28;20070;-63
2023/05/13 04:57:07;;;;;;;14.50;13.05;;;12.30;99.90;;;;;;5097154;28;20406;-63
2023/05/13 04:59:34;;;;;;;14.32;12.23;;;12.90;99.90;;;;;;5098033;28;20052;-63
2023/05/13 05:02:00;;;;;;;13.80;12.50;;;13.40;99.90;;;;;;5080789;28;20052;-63
2023/05/13 05:04:27;;;;;;;13.82;12.35;;;13.90;99.90;;;;;;5097456;28;20051;-64
2023/05/13 05:06:53;;;;;;;14.10;12.05;;;14.80;99.90;;;;;;5096991;28;20058;-65
2023/05/13 05:09:19;;;;;;;16.48;11.63;;;15.10;99.90;;;;;;5097255;28;20052;-65
2023/05/13 05:11:46;;;;;;;13.48;11.77;;;15.20;99.90;;;;;;5096941;28;20039;-66
2023/05/13 05:14:12;;;;;;;12.63;11.30;;;15.80;99.90;;;;;;5097140;28;20048;-64
2023/05/13 05:16:38;;;;;;;13.55;11.70;;;16.30;99.90;;;;;;5096496;28;20139;-64
2023/05/13 05:19:04;;;;;;;14.40;11.98;;;16.40;99.90;;;;;;5097315;28;20083;-66
2023/05/13 05:21:30;;;;;;;15.55;12.25;;;16.80;99.90;;;;;;5097218;28;20051;-63
2023/05/13 05:23:58;;;;;;;12.75;11.40;;;16.90;99.90;;;;;;5097110;28;20047;-67
2023/05/13 05:26:25;;;;;;;14.07;11.88;;;17.40;99.90;;;;;;5096458;28;20050;-65
2023/05/13 05:28:51;;;;;;;11.45;10.27;;;17.40;99.90;;;;;;5097030;28;20059;-64
2023/05/13 05:31:17;;;;;;;13.93;10.70;;;17.40;99.90;;;;;;5096912;28;20043;-63
2023/05/13 05:33:43;;;;;;;14.45;12.85;;;17.60;99.90;;;;;;5097178;28;20380;-65
2023/05/13 05:36:10;;;;;;;12.85;11.07;;;17.90;99.90;;;;;;5096415;28;20043;-64
2023/05/13 05:38:36;;;;;;;12.57;10.25;;;18.30;99.90;;;;;;5096913;28;20097;-65
2023/05/13 05:41:02;;;;;;;13.13;10.10;;;18.50;99.90;;;;;;5097358;28;20050;-63
2023/05/13 05:43:29;;;;;;;12.82;9.98;;;18.60;99.90;;;;;;5096937;28;20092;-64
2023/05/13 05:45:55;;;;;;;14.63;10.75;;;19.00;99.90;;;;;;5096655;28;20040;-65
2023/05/13 05:48:22;;;;;;;12.77;9.98;;;19.10;99.90;;;;;;5093533;28;20048;-64
2023/05/13 05:50:48;;;;;;;11.95;10.48;;;19.00;99.90;;;;;;5094964;28;20248;-64
2023/05/13 05:53:14;;;;;;;13.70;9.55;;;18.90;99.90;;;;;;5080380;28;20048;-64
2023/05/13 05:55:41;;;;;;;10.80;9.70;;;19.00;99.90;;;;;;5096670;28;20077;-63
2023/05/13 05:58:08;;;;;;;10.82;9.70;;;19.00;99.90;;;;;;5097390;28;20039;-64
2023/05/13 06:00:35;;;;;;;13.20;10.80;;;19.00;99.90;;;;;;5097363;28;20413;-64
2023/05/13 06:03:01;;;;;;;12.90;11.25;;;18.90;99.90;;;;;;5097300;28;20076;-64
2023/05/13 06:05:27;;;;;;;10.88;9.27;;;18.90;99.90;;;;;;5096856;28;20104;-64
2023/05/13 06:07:53;;;;;;;11.40;10.20;;;18.90;99.90;;;;;;5097174;28;20059;-65
2023/05/13 06:10:19;;;;;;;10.77;9.45;;;19.00;99.90;;;;;;5097084;28;20051;-63
2023/05/13 06:12:46;;;;;;;12.60;10.20;;;19.20;99.90;;;;;;5096891;28;20089;-64
2023/05/13 06:15:12;;;;;;;11.80;10.35;;;19.50;99.90;;;;;;5079869;28;20051;-65
2023/05/13 06:17:38;;;;;;;10.90;9.90;;;19.50;99.90;;;;;;5096956;28;20105;-64
2023/05/13 06:20:05;;;;;;;12.80;11.23;;;19.50;99.90;;;;;;5097155;28;20427;-64
2023/05/13 06:22:32;;;;;;;10.98;9.73;;;19.40;99.90;;;;;;5096676;28;20483;-65
2023/05/13 06:24:58;;;;;;;9.75;8.77;;;19.60;99.90;;;;;;5096517;28;20082;-63
2023/05/13 06:27:24;;;;;;;10.45;9.35;;;19.70;99.90;;;;;;5096422;28;20056;-64
2023/05/13 06:29:50;;;;;;;14.50;10.15;;;19.90;99.90;;;;;;5096786;28;20071;-64
2023/05/13 06:32:17;;;;;;;14.63;9.93;;;20.10;99.90;;;;;;5079675;28;20356;-64
2023/05/13 06:34:46;;;;;;;11.50;9.88;;;20.20;99.90;;;;;;5079617;28;20059;-64
2023/05/13 06:37:12;;;;;;;11.20;9.82;;;20.40;99.90;;;;;;5096221;28;20118;-64
2023/05/13 06:39:39;;;;;;;14.27;10.40;;;20.20;99.90;;;;;;5095650;28;20047;-65
2023/05/13 06:42:05;;;;;;;11.35;9.68;;;20.00;99.90;;;;;;5114525;28;20120;-64
2023/05/13 06:44:32;;;;;;;14.40;10.07;;;20.30;99.90;;;;;;5096673;28;20051;-63
2023/05/13 06:46:58;;;;;;;11.27;10.18;;;20.60;99.90;;;;;;5096355;28;20481;-65
2023/05/13 06:49:24;;;;;;;9.95;8.93;;;20.80;99.90;;;;;;5079581;28;20055;-65
2023/05/13 06:51:50;;;;;;;16.35;9.25;;;21.10;99.90;;;;;;5096199;28;20494;-64
2023/05/13 06:54:17;;;;;;;11.15;10.00;;;21.10;99.90;;;;;;5096628;28;20044;-63
2023/05/13 06:56:43;;;;;;;13.07;9.55;;;21.00;99.90;;;;;;5096648;28;20054;-64
2023/05/13 06:59:09;;;;;;;10.18;9.18;;;20.80;99.90;;;;;;5096623;28;20069;-64
2023/05/13 07:01:35;;;;;;;11.27;9.38;;;20.70;99.90;;;;;;5096682;28;20467;-63
2023/05/13 07:04:02;;;;;;;10.55;9.45;;;20.90;99.90;;;;;;5097015;28;20464;-63
2023/05/13 07:06:28;;;;;;;10.77;9.27;;;21.00;99.90;;;;;;5096219;28;20047;-64
2023/05/13 07:08:55;;;;;;;10.23;8.82;;;21.00;99.90;;;;;;5114979;28;20048;-64
2023/05/13 07:11:22;;;;;;;11.75;9.07;;;20.50;99.90;;;;;;5096690;28;20058;-63
2023/05/13 07:13:48;;;;;;;10.20;9.20;;;19.90;99.90;;;;;;5114740;28;20119;-64
2023/05/13 07:16:16;;;;;;;12.73;9.30;;;19.70;99.90;;;;;;5095851;28;20463;-63
2023/05/13 07:18:42;;;;;;;10.20;9.20;;;19.50;99.90;;;;;;5079237;28;20050;-65
2023/05/13 07:21:09;;;;;;;11.38;9.55;;;19.50;99.90;;;;;;5095856;28;20039;-64
2023/05/13 07:23:35;;;;;;;9.95;8.82;;;19.50;99.90;;;;;;5096076;28;20482;-63
2023/05/13 07:26:01;;;;;;;11.40;9.13;;;19.40;99.90;;;;;;5113635;28;20055;-66
2023/05/13 07:28:27;;;;;;;11.07;9.10;;;19.30;99.90;;;;;;5095548;28;20054;-63
2023/05/13 07:30:54;;;;;;;12.57;9.73;;;19.50;99.90;;;;;;5095415;28;20044;-65
2023/05/13 07:33:20;;;;;;;10.32;9.27;;;19.60;99.90;;;;;;5095721;28;20078;-64
2023/05/13 07:35:46;;;;;;;10.40;9.27;;;19.50;99.90;;;;;;5095113;28;20043;-64
2023/05/13 07:38:12;;;;;;;13.50;9.20;;;19.40;99.90;;;;;;5095396;28;20055;-64
2023/05/13 07:40:39;;;;;;;11.25;9.13;;;19.40;99.90;;;;;;5095731;28;20113;-64
2023/05/13 07:43:05;;;;;;;11.45;9.02;;;19.30;99.90;;;;;;5095687;28;20048;-64
2023/05/13 07:45:32;;;;;;;11.05;9.75;;;19.20;99.90;;;;;;5094669;28;20055;-64
2023/05/13 07:47:58;;;;;;;9.88;8.45;;;19.20;99.90;;;;;;5095598;28;20070;-63
2023/05/13 07:50:24;;;;;;;9.32;8.27;;;19.30;99.90;;;;;;5095196;28;20062;-64
2023/05/13 07:52:51;;;;;;;10.30;8.75;;;19.50;99.90;;;;;;5095550;28;20044;-64
2023/05/13 07:55:17;;;;;;;10.25;8.52;;;19.50;99.90;;;;;;5095289;28;20051;-64
2023/05/13 07:57:43;;;;;;;9.63;8.65;;;19.40;99.90;;;;;;5113306;28;20622;-63
2023/05/13 08:00:10;;;;;;;10.85;7.80;;;19.50;99.90;;;;;;5095555;28;20051;-63
2023/05/13 08:02:38;;;;;;;8.98;7.65;;;19.50;99.90;;;;;;5096695;28;20047;-65
2023/05/13 08:05:05;;;;;;;10.48;9.40;;;19.60;99.90;;;;;;5098145;28;20486;-64
2023/05/13 08:07:31;;;;;;;10.35;8.00;;;19.60;99.90;;;;;;5098815;28;20108;-64
2023/05/13 08:09:57;;;;;;;10.18;7.72;;;19.70;99.90;;;;;;5098638;28;20052;-64
2023/05/13 08:12:24;;;;;;;9.25;8.27;;;19.80;99.90;;;;;;5098609;28;20414;-65
2023/05/13 08:14:50;;;;;;;10.43;8.23;;;19.70;99.90;;;;;;5098801;28;20150;-64
2023/05/13 08:17:18;;;;;;;9.98;7.90;;;19.70;99.90;;;;;;5077139;28;20078;-64
2023/05/13 08:19:45;;;;;;;8.85;7.45;;;19.80;99.90;;;;;;5095014;28;20511;-65
2023/05/13 08:22:11;;;;;;;8.80;7.90;;;19.80;99.90;;;;;;5115995;28;20055;-64
2023/05/13 08:24:39;;;;;;;8.90;7.85;;;19.80;99.90;;;;;;5098382;28;20092;-64
2023/05/13 08:27:05;;;;;;;9.65;7.30;;;19.80;99.90;;;;;;5096513;28;20112;-64
2023/05/13 08:29:32;;;;;;;12.23;8.15;;;20.00;99.90;;;;;;5078078;28;20052;-64
2023/05/13 08:31:58;;;;;;;11.90;8.25;;;20.20;99.90;;;;;;5078182;28;20048;-65
2023/05/13 08:34:25;;;;;;;11.43;7.40;;;20.40;99.90;;;;;;5077659;28;20052;-65
2023/05/13 08:36:51;;;;;;;11.98;7.82;;;20.50;99.90;;;;;;5095530;28;20040;-64
2023/05/13 08:39:17;;;;;;;8.77;7.20;;;20.20;99.90;;;;;;5077917;28;20044;-65
2023/05/13 08:41:45;;;;;;;12.18;7.65;;;20.20;99.90;;;;;;5096045;28;20052;-65
2023/05/13 08:44:12;;;;;;;9.73;7.57;;;20.40;99.90;;;;;;5077422;28;20055;-65
2023/05/13 08:46:43;;;;;;;9.43;7.35;;;20.50;99.90;;;;;;5077176;28;20403;-65
2023/05/13 08:49:09;;;;;;;10.00;6.97;;;20.50;99.90;;;;;;5077812;28;20067;-65
2023/05/13 08:51:36;;;;;;;8.48;6.43;;;20.50;99.90;;;;;;5095410;28;20048;-64
2023/05/13 08:54:03;;;;;;;10.40;7.13;;;20.50;99.90;;;;;;5077746;28;19998;-64
2023/05/13 08:56:29;;;;;;;9.70;7.10;;;20.50;99.90;;;;;;5094923;28;20044;-63
2023/05/13 08:58:56;;;;;;;9.13;7.53;;;20.60;99.90;;;;;;5077240;28;20040;-64
2023/05/13 09:01:25;;;;;;;7.18;6.45;;;20.70;99.90;;;;;;5061085;28;20051;-64
2023/05/13 09:03:57;;;;;;;9.02;6.60;;;20.70;99.90;;;;;;5077524;28;20079;-64
2023/05/13 09:06:23;;;;;;;9.40;7.10;;;20.70;99.90;;;;;;5077865;28;20060;-66
2023/05/13 09:08:50;;;;;;;10.02;6.82;;;20.70;99.90;;;;;;5077388;28;20121;-64
2023/05/13 09:11:16;;;;;;;9.23;6.95;;;20.70;99.90;;;;;;5077530;28;20113;-64
2023/05/13 09:13:43;;;;;;;9.40;6.53;;;20.90;99.90;;;;;;5076581;28;20427;-64
2023/05/13 09:16:12;;;;;;;7.80;7.10;;;20.90;99.90;;;;;;5076490;28;20385;-65
2023/05/13 09:18:40;;;;;;;6.95;5.47;;;20.90;99.90;;;;;;5076514;28;20043;-64
2023/05/13 09:21:28;;;;;;;9.63;5.95;;;21.00;99.90;;;;;;5077173;28;20085;-64
2023/05/13 09:24:20;;;;;;;9.05;7.38;;;21.00;99.90;;;;;;5077392;28;20127;-64
2023/05/13 09:26:48;;;;;;;8.02;5.68;;;21.00;99.90;;;;;;5076867;28;20101;-65
2023/05/13 09:29:27;;;;;;;6.80;5.25;;;21.10;99.90;;;;;;5076969;28;20105;-63
2023/05/13 09:31:56;;;;;;;7.57;5.30;;;21.10;99.90;;;;;;5076734;28;20453;-63
2023/05/13 09:34:31;;;;;;;7.80;4.80;;;21.20;99.20;;;;;;5077358;28;20044;-64
2023/05/13 09:37:05;;;;;;;6.70;6.00;;;21.20;98.80;;;;;;5072020;28;20430;-64
2023/05/13 09:39:37;;;;;;;5.90;5.30;;;21.10;98.60;;;;;;5060204;28;20044;-65
2023/05/13 09:42:04;;;;;;;6.82;4.95;;;21.20;99.00;;;;;;5077269;28;20282;-65
2023/05/13 09:44:31;;;;;;;6.18;4.85;;;21.10;99.20;;;;;;5094752;28;20044;-63
2023/05/13 09:46:58;;;;;;;7.20;5.15;;;21.20;99.30;;;;;;5076173;28;20468;-64
2023/05/13 09:49:25;;;;;;;7.72;4.70;;;21.30;98.70;;;;;;5094151;28;20105;-65
2023/05/13 09:51:52;;;;;;;5.10;4.05;;;21.40;98.00;;;;;;5076755;28;20055;-64
2023/05/13 09:54:18;;;;;;;6.10;4.60;;;21.40;97.80;;;;;;5060279;28;20056;-64
2023/05/13 09:56:44;;;;;;;4.53;4.07;;;21.40;97.90;;;;;;5076040;28;20047;-64
2023/05/13 09:59:10;;;;;;;7.47;4.68;;;21.50;98.00;;;;;;5076661;28;20097;-64
2023/05/13 10:01:38;;;;;;;5.53;4.85;;;21.50;98.40;;;;;;5094579;28;20113;-64
2023/05/13 10:04:05;;;;;;;7.57;4.65;;;21.70;97.90;;;;;;5076952;28;20059;-66
2023/05/13 10:06:32;;;;;;;7.63;4.57;;;21.90;97.80;;;;;;5076240;28;20468;-65
2023/05/13 10:09:02;;;;;;;8.35;4.38;;;22.10;97.80;;;;;;5076340;28;20060;-64
2023/05/13 10:11:31;;;;;;;6.72;4.22;;;22.10;96.90;;;;;;5072800;28;20073;-64
2023/05/13 10:14:03;;;;;;;5.05;4.47;;;22.20;96.70;;;;;;5076120;28;20407;-64
2023/05/13 10:16:31;;;;;;;6.30;4.93;;;22.20;95.80;;;;;;5076283;28;20056;-64
2023/05/13 10:18:58;;;;;;;8.00;4.47;;;22.40;96.00;;;;;;5076380;28;20348;-65
2023/05/13 10:21:26;;;;;;;5.13;3.83;;;22.40;95.10;;;;;;5076399;28;20098;-64
2023/05/13 10:23:52;;;;;;;4.95;4.10;;;22.40;95.50;;;;;;5076755;28;20055;-64
2023/05/13 10:26:22;;;;;;;7.65;4.25;;;22.50;95.90;;;;;;5074740;28;20052;-65
2023/05/13 10:28:49;;;;;;;4.72;4.22;;;22.60;95.30;;;;;;5101472;27;20046;-65
2023/05/13 10:31:16;;;;;;;6.00;4.10;;;22.80;95.40;;;;;;5116636;27;20471;-66
2023/05/13 10:33:43;;;;;;;7.30;4.68;;;22.90;94.90;;;;;;5116341;27;20077;-65
2023/05/13 10:36:37;;;;;;;6.30;4.78;;;22.90;94.80;;;;;;5115730;27;20069;-64
2023/05/13 10:39:16;;;;;;;7.38;4.85;;;23.00;94.80;;;;;;5116033;27;20166;-65
2023/05/13 10:42:23;;;;;;;5.95;4.32;;;22.90;94.40;;;;;;5116666;27;20524;-65
2023/05/13 10:44:57;;;;;;;5.22;4.15;;;22.80;93.90;;;;;;5116371;27;20130;-64
2023/05/13 10:47:23;;;;;;;7.60;4.03;;;22.80;93.70;;;;;;5115425;27;20051;-65
2023/05/13 10:49:51;;;;;;;5.82;5.20;;;22.90;94.10;;;;;;5116289;27;20092;-64
2023/05/13 10:52:18;;;;;;;6.10;3.80;;;22.90;93.50;;;;;;5116494;27;20054;-65
2023/05/13 10:55:01;;;;;;;7.18;4.55;;;22.90;93.70;;;;;;5096381;28;20109;-64
2023/05/13 10:57:34;;;;;;;9.25;4.80;;;23.10;94.10;;;;;;5095987;27;20043;-65
2023/05/13 11:00:18;;;;;;;5.20;4.00;;;23.20;93.80;;;;;;5114365;27;20051;-65
2023/05/13 11:02:44;;;;;;;5.53;4.43;;;23.30;93.70;;;;;;5087209;28;20054;-63
2023/05/13 11:05:19;;;;;;;5.78;4.22;;;23.50;94.00;;;;;;5079340;28;20069;-64
2023/05/13 11:07:56;;;;;;;5.22;4.20;;;23.50;93.30;;;;;;5095996;28;20058;-64
2023/05/13 11:10:26;;;;;;;6.13;3.90;;;23.50;92.70;;;;;;5095982;28;20039;-66
2023/05/13 11:13:15;;;;;;;5.03;4.53;;;23.60;92.90;;;;;;5078678;28;20448;-65
2023/05/13 11:15:48;;;;;;;4.70;4.20;;;23.60;92.20;;;;;;5075689;28;20055;-64
2023/05/13 11:18:14;;;;;;;7.63;4.53;;;23.50;92.00;;;;;;5126899;27;20455;-64
2023/05/13 11:20:45;;;;;;;8.63;4.60;;;23.50;92.60;;;;;;5116097;27;20051;-64
2023/05/13 11:23:19;;;;;;;5.82;4.53;;;23.40;92.80;;;;;;5116463;28;20047;-65
2023/05/13 11:26:15;;;;;;;6.72;4.03;;;23.40;92.40;;;;;;5134467;27;20047;-64
2023/05/13 11:29:02;;;;;;;7.20;3.83;;;23.50;91.20;;;;;;5095950;28;20056;-64
2023/05/13 11:31:46;;;;;;;8.07;4.47;;;23.40;91.20;;;;;;5077201;28;20052;-64
2023/05/13 11:34:15;;;;;;;4.85;4.03;;;23.10;91.40;;;;;;5102493;28;20048;-63
2023/05/13 11:36:45;;;;;;;4.68;4.13;;;23.20;91.50;;;;;;5079874;28;20040;-63
2023/05/13 11:39:20;;;;;;;7.18;3.85;;;23.30;90.70;;;;;;5118343;28;20047;-64
2023/05/13 11:41:49;;;;;;;7.18;4.22;;;23.40;90.60;;;;;;5099950;28;20048;-63
2023/05/13 11:44:18;;;;;;;8.10;4.78;;;23.50;90.30;;;;;;5100018;28;20488;-66
2023/05/13 11:47:08;;;;;;;5.47;3.92;;;23.60;90.30;;;;;;5099702;28;20101;-64
2023/05/13 11:49:40;;;;;;;5.30;3.92;;;23.60;89.60;;;;;;5115601;27;20066;-63
2023/05/13 11:52:11;;;;;;;4.28;3.50;;;23.70;89.20;;;;;;5134065;27;20477;-63
2023/05/13 11:54:46;;;;;;;4.72;4.25;;;23.60;88.60;;;;;;5088441;28;20495;-65
2023/05/13 11:57:27;;;;;;;5.65;3.72;;;23.70;87.90;;;;;;5094945;28;20052;-64
2023/05/13 12:00:00;;;;;;;6.22;3.80;;;23.70;89.20;;;;;;5099265;28;20460;-65
2023/05/13 12:02:29;;;;;;;4.75;3.50;;;23.90;87.80;;;;;;5099667;28;20076;-64
2023/05/13 12:05:00;;;;;;;6.60;3.78;;;23.90;85.60;;;;;;5099722;28;20059;-64
2023/05/13 12:07:26;;;;;;;5.72;3.92;;;24.00;85.50;;;;;;5099571;28;20088;-64
2023/05/13 12:09:56;;;;;;;3.88;3.15;;;24.10;86.00;;;;;;5099630;28;20044;-63
2023/05/13 12:12:23;;;;;;;4.00;3.40;;;23.90;84.50;;;;;;5099270;28;20505;-64
2023/05/13 12:14:50;;;;;;;5.78;3.75;;;24.00;85.20;;;;;;5089336;28;20047;-64
2023/05/13 12:17:17;;;;;;;7.75;4.13;;;24.00;86.00;;;;;;5070377;28;20051;-64
2023/05/13 12:20:13;;;;;;;5.03;3.15;;;23.90;85.30;;;;;;5095807;28;20051;-63
2023/05/13 12:22:42;;;;;;;6.80;3.45;;;24.00;86.30;;;;;;5079252;28;20055;-64
2023/05/13 12:25:30;;;;;;;3.83;3.17;;;24.00;85.50;;;;;;5078618;28;20101;-65
2023/05/13 12:27:58;;;;;;;4.68;3.90;;;24.20;84.10;;;;;;5092307;28;20384;-64
2023/05/13 12:30:24;;;;;;;5.45;3.30;;;24.20;83.60;;;;;;5099090;28;20100;-64
2023/05/13 12:32:51;;;;;;;6.40;3.78;;;24.10;84.50;;;;;;5099790;28;20116;-64
2023/05/13 12:35:17;;;;;;;5.78;3.17;;;24.10;84.00;;;;;;5099353;28;20459;-66
2023/05/13 12:37:43;;;;;;;6.20;3.63;;;24.10;84.30;;;;;;5095495;28;20096;-64
2023/05/13 12:40:11;;;;;;;5.70;3.42;;;23.90;85.90;;;;;;5093068;28;20048;-65
2023/05/13 12:42:37;;;;;;;13.20;5.07;;;24.00;85.80;;;;;;5110373;28;20051;-65
2023/05/13 12:45:04;;;;;;;6.75;3.63;;;23.90;85.20;;;;;;5078507;28;20102;-64